createdAt,value
2017-04-22T00:00:35.058Z,10.46
2017-04-22T00:01:46.079Z,10.36
2017-04-22T00:02:57.115Z,10.42
2017-04-22T00:04:08.143Z,10.35
2017-04-22T00:05:19.417Z,10.39
2017-04-22T00:06:30.436Z,10.44
2017-04-22T00:07:41.508Z,10.38
2017-04-22T00:08:52.530Z,10.25
2017-04-22T00:10:03.562Z,10.35
2017-04-22T00:11:14.589Z,10.28
2017-04-22T00:12:25.820Z,10.35
2017-04-22T00:13:37.238Z,10.26
2017-04-22T00:14:48.280Z,10.25
2017-04-22T00:15:59.290Z,10.28
2017-04-22T00:17:10.302Z,10.18
2017-04-22T00:18:21.331Z,10.31
2017-04-22T00:19:32.361Z,10.18
2017-04-22T00:20:43.383Z,10.2
2017-04-22T00:21:54.610Z,10.15
2017-04-22T00:23:05.679Z,10.21
2017-04-22T00:24:16.728Z,10.15
2017-04-22T00:25:27.851Z,10.14
2017-04-22T00:26:39.089Z,10.1
2017-04-22T00:27:50.120Z,10.1
2017-04-22T00:29:01.174Z,10.15
2017-04-22T00:30:12.813Z,10.11
2017-04-22T00:31:23.866Z,10.11
2017-04-22T00:32:35.087Z,10.15
2017-04-22T00:33:46.160Z,10.13
2017-04-22T00:34:57.182Z,10.1
2017-04-22T00:36:08.212Z,10.1
2017-04-22T00:37:19.431Z,9.99
2017-04-22T00:38:30.454Z,9.95
2017-04-22T00:39:41.480Z,9.85
2017-04-22T00:40:52.504Z,9.75
2017-04-22T00:42:03.726Z,9.78
2017-04-22T00:43:14.749Z,9.64
2017-04-22T00:44:25.780Z,9.56
2017-04-22T00:45:37.008Z,9.55
2017-04-22T00:46:48.030Z,9.52
2017-04-22T00:47:59.457Z,9.39
2017-04-22T00:49:10.530Z,9.41
2017-04-22T00:50:21.783Z,9.32
2017-04-22T00:51:32.938Z,9.37
2017-04-22T00:52:44.021Z,9.32
2017-04-22T00:53:55.241Z,9.3
2017-04-22T00:55:06.265Z,9.3
2017-04-22T00:56:17.299Z,9.34
2017-04-22T00:57:28.322Z,9.34
2017-04-22T00:58:39.562Z,9.26
2017-04-22T00:59:50.597Z,9.21
2017-04-22T01:01:01.623Z,9.14
2017-04-22T01:02:12.656Z,9.19
2017-04-22T01:03:23.883Z,9.11
2017-04-22T01:04:34.950Z,9.17
2017-04-22T01:05:46.170Z,9.17
2017-04-22T01:06:57.191Z,9.17
2017-04-22T01:08:08.214Z,9.21
2017-04-22T01:09:19.441Z,9.14
2017-04-22T01:10:30.468Z,9.16
2017-04-22T01:11:41.498Z,9.11
2017-04-22T01:12:52.525Z,9.16
2017-04-22T01:14:03.759Z,9.04
2017-04-22T01:15:15.082Z,9.14
2017-04-22T01:16:26.120Z,9.16
2017-04-22T01:17:37.239Z,9.17
2017-04-22T01:18:48.758Z,9.14
2017-04-22T01:19:59.909Z,9.17
2017-04-22T01:21:10.975Z,9.14
2017-04-22T01:22:22.001Z,9.12
2017-04-22T01:23:33.035Z,9.12
2017-04-22T01:24:44.081Z,9.04
2017-04-22T01:25:55.101Z,9.03
2017-04-22T01:27:06.133Z,8.97
2017-04-22T01:28:17.175Z,8.97
2017-04-22T01:29:28.206Z,8.95
2017-04-22T01:30:39.239Z,9.05
2017-04-22T01:31:50.324Z,8.97
2017-04-22T01:33:01.351Z,8.94
2017-04-22T01:34:12.384Z,8.9
2017-04-22T01:35:23.415Z,8.85
2017-04-22T01:36:34.437Z,8.79
2017-04-22T01:37:45.497Z,8.71
2017-04-22T01:38:56.524Z,8.67
2017-04-22T01:40:07.555Z,8.5
2017-04-22T01:41:18.774Z,8.5
2017-04-22T01:42:29.809Z,8.47
2017-04-22T01:43:41.304Z,8.54
2017-04-22T01:44:52.533Z,8.49
2017-04-22T01:46:03.698Z,8.5
2017-04-22T01:47:14.724Z,8.52
2017-04-22T01:48:25.957Z,8.5
2017-04-22T01:49:36.987Z,8.52
2017-04-22T01:50:48.079Z,8.62
2017-04-22T01:51:59.307Z,8.6
2017-04-22T01:53:10.527Z,8.57
2017-04-22T01:54:21.556Z,8.64
2017-04-22T01:55:32.598Z,8.67
2017-04-22T01:56:43.626Z,8.67
2017-04-22T01:57:54.649Z,8.67
2017-04-22T01:59:05.878Z,8.65
2017-04-22T02:00:16.905Z,8.67
2017-04-22T02:01:28.128Z,8.64
2017-04-22T02:02:39.154Z,8.74
2017-04-22T02:03:50.392Z,8.61
2017-04-22T02:05:01.651Z,8.72
2017-04-22T02:06:12.675Z,8.67
2017-04-22T02:07:23.776Z,8.6
2017-04-22T02:08:34.802Z,8.65
2017-04-22T02:09:45.825Z,8.71
2017-04-22T02:10:57.122Z,8.62
2017-04-22T02:12:08.549Z,8.64
2017-04-22T02:13:19.576Z,8.68
2017-04-22T02:14:30.608Z,8.67
2017-04-22T02:15:41.629Z,8.67
2017-04-22T02:16:52.693Z,8.68
2017-04-22T02:18:03.948Z,8.68
2017-04-22T02:19:14.992Z,8.65
2017-04-22T02:20:26.020Z,8.65
2017-04-22T02:21:37.071Z,8.62
2017-04-22T02:22:48.302Z,8.67
2017-04-22T02:23:59.327Z,8.62
2017-04-22T02:25:10.343Z,8.61
2017-04-22T02:26:21.380Z,8.67
2017-04-22T02:27:32.412Z,8.54
2017-04-22T02:28:43.448Z,8.68
2017-04-22T02:29:54.683Z,8.58
2017-04-22T02:31:05.711Z,8.53
2017-04-22T02:32:16.780Z,8.52
2017-04-22T02:33:27.807Z,8.52
2017-04-22T02:34:38.828Z,8.4
2017-04-22T02:35:49.853Z,8.36
2017-04-22T02:37:01.004Z,8.44
2017-04-22T02:38:12.106Z,8.43
2017-04-22T02:39:23.133Z,8.4
2017-04-22T02:40:34.157Z,8.34
2017-04-22T02:41:45.388Z,8.34
2017-04-22T02:42:56.429Z,8.29
2017-04-22T02:44:07.654Z,8.24
2017-04-22T02:45:18.673Z,8.24
2017-04-22T02:46:29.703Z,8.22
2017-04-22T02:47:40.779Z,8.22
2017-04-22T02:48:51.797Z,8.21
2017-04-22T02:50:02.820Z,8.21
2017-04-22T02:51:13.867Z,8.24
2017-04-22T02:52:24.895Z,8.24
2017-04-22T02:53:36.128Z,8.19
2017-04-22T02:54:47.151Z,8.21
2017-04-22T02:55:58.174Z,8.11
2017-04-22T02:57:09.397Z,8.16
2017-04-22T02:58:20.475Z,8.17
2017-04-22T02:59:31.711Z,8.13
2017-04-22T03:00:42.932Z,8.16
2017-04-22T03:01:54.370Z,8.16
2017-04-22T03:03:05.400Z,8.11
2017-04-22T03:04:16.620Z,8.14
2017-04-22T03:05:27.806Z,8.16
2017-04-22T03:06:38.827Z,8.13
2017-04-22T03:07:49.901Z,8.16
2017-04-22T03:09:01.315Z,8.1
2017-04-22T03:10:12.331Z,8.19
2017-04-22T03:11:23.349Z,8.19
2017-04-22T03:12:34.584Z,8.16
2017-04-22T03:13:45.657Z,8.16
2017-04-22T03:14:56.688Z,8.11
2017-04-22T03:16:07.714Z,8.17
2017-04-22T03:17:18.744Z,8.11
2017-04-22T03:18:29.770Z,8.17
2017-04-22T03:19:40.793Z,8.19
2017-04-22T03:20:52.024Z,8.09
2017-04-22T03:22:03.042Z,8.06
2017-04-22T03:23:14.061Z,8.07
2017-04-22T03:24:25.089Z,8.09
2017-04-22T03:25:36.123Z,8.06
2017-04-22T03:26:47.150Z,8.03
2017-04-22T03:27:58.184Z,8.09
2017-04-22T03:29:09.501Z,8.09
2017-04-22T03:30:20.524Z,8.03
2017-04-22T03:31:31.540Z,8.06
2017-04-22T03:32:42.564Z,7.98
2017-04-22T03:33:53.600Z,8.09
2017-04-22T03:35:04.638Z,8.06
2017-04-22T03:36:15.658Z,7.99
2017-04-22T03:37:26.887Z,8.07
2017-04-22T03:38:38.166Z,8.06
2017-04-22T03:39:49.190Z,8.07
2017-04-22T03:41:00.204Z,8.06
2017-04-22T03:42:11.237Z,7.93
2017-04-22T03:43:22.459Z,8.04
2017-04-22T03:44:33.485Z,8.04
2017-04-22T03:45:44.523Z,8.09
2017-04-22T03:46:55.551Z,7.92
2017-04-22T03:48:06.574Z,8.06
2017-04-22T03:49:17.604Z,8.06
2017-04-22T03:50:28.674Z,7.96
2017-04-22T03:51:39.693Z,7.93
2017-04-22T03:52:50.718Z,7.92
2017-04-22T03:54:01.904Z,7.98
2017-04-22T03:55:12.940Z,7.96
2017-04-22T03:56:23.966Z,7.92
2017-04-22T03:57:34.979Z,7.98
2017-04-22T03:58:46.198Z,7.95
2017-04-22T03:59:57.228Z,7.92
2017-04-22T04:01:08.266Z,7.98
2017-04-22T04:02:19.282Z,8.01
2017-04-22T04:03:30.309Z,8.03
2017-04-22T04:04:41.539Z,7.98
2017-04-22T04:05:52.566Z,7.98
2017-04-22T04:07:03.673Z,7.96
2017-04-22T04:08:14.893Z,8.01
2017-04-22T04:09:25.987Z,7.98
2017-04-22T04:10:37.099Z,7.98
2017-04-22T04:11:48.332Z,7.93
2017-04-22T04:12:59.351Z,8.07
2017-04-22T04:14:10.574Z,7.99
2017-04-22T04:15:21.657Z,7.95
2017-04-22T04:16:32.700Z,7.98
2017-04-22T04:17:43.728Z,7.96
2017-04-22T04:18:54.764Z,8.01
2017-04-22T04:20:05.788Z,8.04
2017-04-22T04:21:16.824Z,8.04
2017-04-22T04:22:27.872Z,8.06
2017-04-22T04:23:39.111Z,7.96
2017-04-22T04:24:50.133Z,8.07
2017-04-22T04:26:01.409Z,8.03
2017-04-22T04:27:12.427Z,7.95
2017-04-22T04:28:23.442Z,7.96
2017-04-22T04:29:34.463Z,8.06
2017-04-22T04:30:45.493Z,8.09
2017-04-22T04:31:56.529Z,7.98
2017-04-22T04:33:07.593Z,8.03
2017-04-22T04:34:18.608Z,8.1
2017-04-22T04:35:29.631Z,8.21
2017-04-22T04:36:40.707Z,8.21
2017-04-22T04:37:51.728Z,8.14
2017-04-22T04:39:02.751Z,8.14
2017-04-22T04:40:13.984Z,8.16
2017-04-22T04:41:25.209Z,8.1
2017-04-22T04:42:36.237Z,8.11
2017-04-22T04:43:47.267Z,8.13
2017-04-22T04:44:58.701Z,8.17
2017-04-22T04:46:09.726Z,8.17
2017-04-22T04:47:20.731Z,8.1
2017-04-22T04:48:31.756Z,8.09
2017-04-22T04:49:42.783Z,8.11
2017-04-22T04:50:53.814Z,8.1
2017-04-22T04:52:04.902Z,8.07
2017-04-22T04:53:15.921Z,8.06
2017-04-22T04:54:27.145Z,8.09
2017-04-22T04:55:38.184Z,8.19
2017-04-22T04:56:49.459Z,8.17
2017-04-22T04:58:00.486Z,8.11
2017-04-22T04:59:11.509Z,8.22
2017-04-22T05:00:22.537Z,8.07
2017-04-22T05:01:33.574Z,8.19
2017-04-22T05:02:44.590Z,8.17
2017-04-22T05:03:55.613Z,8.16
2017-04-22T05:05:06.836Z,8.1
2017-04-22T05:06:17.875Z,8.11
2017-04-22T05:07:29.103Z,8.13
2017-04-22T05:08:40.221Z,8.03
2017-04-22T05:09:51.449Z,8.06
2017-04-22T05:11:02.476Z,7.95
2017-04-22T05:12:13.713Z,7.91
2017-04-22T05:13:24.782Z,8.01
2017-04-22T05:14:35.808Z,7.86
2017-04-22T05:15:46.978Z,7.92
2017-04-22T05:16:58.395Z,7.93
2017-04-22T05:18:09.427Z,7.96
2017-04-22T05:19:20.850Z,7.98
2017-04-22T05:20:31.877Z,8.1
2017-04-22T05:21:42.894Z,8.07
2017-04-22T05:22:53.921Z,8.13
2017-04-22T05:24:05.151Z,8.19
2017-04-22T05:25:16.188Z,8.11
2017-04-22T05:26:27.216Z,8.14
2017-04-22T05:27:38.452Z,8.16
2017-04-22T05:28:49.721Z,8.17
2017-04-22T05:30:00.764Z,8.13
2017-04-22T05:31:11.782Z,8.13
2017-04-22T05:32:23.012Z,8.1
2017-04-22T05:33:34.028Z,8.13
2017-04-22T05:34:45.075Z,8.16
2017-04-22T05:35:56.085Z,8.07
2017-04-22T05:37:07.304Z,8.25
2017-04-22T05:38:18.327Z,8.19
2017-04-22T05:39:29.559Z,8.21
2017-04-22T05:40:40.789Z,8.22
2017-04-22T05:41:51.824Z,8.17
2017-04-22T05:43:03.043Z,8.26
2017-04-22T05:44:14.070Z,8.35
2017-04-22T05:45:25.099Z,8.43
2017-04-22T05:46:36.122Z,8.44
2017-04-22T05:47:47.153Z,8.44
2017-04-22T05:48:58.190Z,8.57
2017-04-22T05:50:09.226Z,8.67
2017-04-22T05:51:20.255Z,8.74
2017-04-22T05:52:31.280Z,8.83
2017-04-22T05:53:42.316Z,8.98
2017-04-22T05:54:53.345Z,9.08
2017-04-22T05:56:04.374Z,9.16
2017-04-22T05:57:15.399Z,9.16
2017-04-22T05:58:26.484Z,9.2
2017-04-22T05:59:37.525Z,9.14
2017-04-22T06:00:48.551Z,9.14
2017-04-22T06:01:59.570Z,9.2
2017-04-22T06:03:10.602Z,9.21
2017-04-22T06:04:21.628Z,9.34
2017-04-22T06:05:32.652Z,9.21
2017-04-22T06:06:43.669Z,9.23
2017-04-22T06:07:54.717Z,9.34
2017-04-22T06:09:05.951Z,9.37
2017-04-22T06:10:17.086Z,9.55
2017-04-22T06:11:28.113Z,9.7
2017-04-22T06:12:39.141Z,9.62
2017-04-22T06:13:50.239Z,9.67
2017-04-22T06:15:01.268Z,9.66
2017-04-22T06:16:12.291Z,9.74
2017-04-22T06:17:23.348Z,9.78
2017-04-22T06:18:34.383Z,9.99
2017-04-22T06:19:45.414Z,10.13
2017-04-22T06:20:56.431Z,10.14
2017-04-22T06:22:07.454Z,9.99
2017-04-22T06:23:18.498Z,9.96
2017-04-22T06:24:29.538Z,9.82
2017-04-22T06:25:40.569Z,9.82
2017-04-22T06:26:51.594Z,9.74
2017-04-22T06:28:02.619Z,9.85
2017-04-22T06:29:13.641Z,10.26
2017-04-22T06:30:24.682Z,10.38
2017-04-22T06:31:35.718Z,10.67
2017-04-22T06:32:46.741Z,11.05
2017-04-22T06:33:57.987Z,11.18
2017-04-22T06:35:09.054Z,10.97
2017-04-22T06:36:20.290Z,11.03
2017-04-22T06:37:31.517Z,11.28
2017-04-22T06:38:42.696Z,11.48
2017-04-22T06:39:53.877Z,11.23
2017-04-22T06:41:05.128Z,11.46
2017-04-22T06:42:16.155Z,11.59
2017-04-22T06:43:27.187Z,11.6
2017-04-22T06:44:38.365Z,11.6
2017-04-22T06:45:49.397Z,11.42
2017-04-22T06:47:00.509Z,11.28
2017-04-22T06:48:11.772Z,11.26
2017-04-22T06:49:22.942Z,11.35
2017-04-22T06:50:33.979Z,11.86
2017-04-22T06:51:45.239Z,12.01
2017-04-22T06:52:56.353Z,11.88
2017-04-22T06:54:07.374Z,11.7
2017-04-22T06:55:18.870Z,12.11
2017-04-22T06:56:29.893Z,12.26
2017-04-22T06:57:40.933Z,12.37
2017-04-22T06:58:51.973Z,12.44
2017-04-22T07:00:03.448Z,12.25
2017-04-22T07:01:14.475Z,12.08
2017-04-22T07:02:25.515Z,12.11
2017-04-22T07:03:36.549Z,11.91
2017-04-22T07:04:47.581Z,11.63
2017-04-22T07:05:58.615Z,11.81
2017-04-22T07:07:09.849Z,12.22
2017-04-22T07:08:20.872Z,12.36
2017-04-22T07:09:31.897Z,12.22
2017-04-22T07:10:42.932Z,12.22
2017-04-22T07:11:53.962Z,12.34
2017-04-22T07:13:04.998Z,12.55
2017-04-22T07:14:16.229Z,12.56
2017-04-22T07:15:27.276Z,12.44
2017-04-22T07:16:38.566Z,12.13
2017-04-22T07:17:49.589Z,12.01
2017-04-22T07:19:00.830Z,11.64
2017-04-22T07:20:11.872Z,11.64
2017-04-22T07:21:22.896Z,11.57
2017-04-22T07:22:33.924Z,11.31
2017-04-22T07:23:44.959Z,11.51
2017-04-22T07:24:56.001Z,11.73
2017-04-22T07:26:07.226Z,12.1
2017-04-22T07:27:18.458Z,12.15
2017-04-22T07:28:29.505Z,11.98
2017-04-22T07:29:40.535Z,11.91
2017-04-22T07:30:51.559Z,12.33
2017-04-22T07:32:02.585Z,12.59
2017-04-22T07:33:13.623Z,12.98
2017-04-22T07:34:24.661Z,13.21
2017-04-22T07:35:35.895Z,13.55
2017-04-22T07:36:46.930Z,14.2
2017-04-22T07:37:57.970Z,14.61
2017-04-22T07:39:09.007Z,15.01
2017-04-22T07:40:20.244Z,15.43
2017-04-22T07:41:31.323Z,15.6
2017-04-22T07:42:42.366Z,15.91
2017-04-22T07:43:53.405Z,15.86
2017-04-22T07:45:04.442Z,15.98
2017-04-22T07:46:15.472Z,15.92
2017-04-22T07:47:26.726Z,15.53
2017-04-22T07:48:37.763Z,14.98
2017-04-22T07:49:48.799Z,14.48
2017-04-22T07:50:59.837Z,13.99
2017-04-22T07:52:10.853Z,13.73
2017-04-22T07:53:21.893Z,13.51
2017-04-22T07:54:32.929Z,13.37
2017-04-22T07:55:44.155Z,13.28
2017-04-22T07:56:55.203Z,13.06
2017-04-22T07:58:06.525Z,12.92
2017-04-22T07:59:17.747Z,12.71
2017-04-22T08:00:28.819Z,12.45
2017-04-22T08:01:40.260Z,12.29
2017-04-22T08:02:51.300Z,12.2
2017-04-22T08:04:02.350Z,12.03
2017-04-22T08:05:13.373Z,11.85
2017-04-22T08:06:24.411Z,11.75
2017-04-22T08:07:35.632Z,11.57
2017-04-22T08:08:46.665Z,11.48
2017-04-22T08:09:57.699Z,11.6
2017-04-22T08:11:08.738Z,11.91
2017-04-22T08:12:19.964Z,12.56
2017-04-22T08:13:31.045Z,13.03
2017-04-22T08:14:42.090Z,13.55
2017-04-22T08:15:53.123Z,14.06
2017-04-22T08:17:04.169Z,14.49
2017-04-22T08:18:15.207Z,14.82
2017-04-22T08:19:26.333Z,15.27
2017-04-22T08:20:37.461Z,15.51
2017-04-22T08:21:48.499Z,15.99
2017-04-22T08:22:59.737Z,16.37
2017-04-22T08:24:10.778Z,16.7
2017-04-22T08:25:21.818Z,16.94
2017-04-22T08:26:32.868Z,17
2017-04-22T08:27:43.971Z,17.05
2017-04-22T08:28:55.216Z,16.9
2017-04-22T08:30:06.259Z,16.88
2017-04-22T08:31:17.311Z,16.94
2017-04-22T08:32:28.347Z,16.73
2017-04-22T08:33:39.388Z,16.49
2017-04-22T08:34:50.425Z,16.55
2017-04-22T08:36:01.465Z,16.36
2017-04-22T08:37:12.513Z,16.49
2017-04-22T08:38:23.958Z,16.65
2017-04-22T08:39:35.010Z,16.99
2017-04-22T08:40:46.245Z,17.07
2017-04-22T08:41:57.490Z,16.59
2017-04-22T08:43:08.794Z,15.92
2017-04-22T08:44:19.913Z,15.59
2017-04-22T08:45:30.965Z,15.34
2017-04-22T08:46:41.997Z,15.08
2017-04-22T08:48:03.084Z,14.77
2017-04-22T08:49:14.174Z,14.71
2017-04-22T08:50:25.223Z,15.12
2017-04-22T08:51:36.269Z,14.95
2017-04-22T08:52:47.307Z,14.66
2017-04-22T08:53:58.544Z,14.77
2017-04-22T08:55:09.600Z,15.02
2017-04-22T08:56:20.633Z,15.34
2017-04-22T08:57:31.883Z,15.56
2017-04-22T08:58:42.932Z,15.59
2017-04-22T08:59:53.983Z,15.86
2017-04-22T09:01:05.031Z,16.06
2017-04-22T09:02:16.072Z,16.08
2017-04-22T09:03:27.167Z,15.99
2017-04-22T09:04:38.205Z,16.07
2017-04-22T09:05:49.246Z,16.02
2017-04-22T09:07:00.290Z,16.02
2017-04-22T09:08:11.540Z,15.89
2017-04-22T09:09:22.590Z,15.98
2017-04-22T09:10:33.628Z,15.93
2017-04-22T09:11:45.077Z,15.84
2017-04-22T09:12:56.527Z,16.18
2017-04-22T09:14:07.566Z,16.69
2017-04-22T09:15:18.615Z,16.99
2017-04-22T09:16:29.656Z,17.27
2017-04-22T09:17:40.706Z,17.57
2017-04-22T09:18:51.752Z,17.84
2017-04-22T09:20:03.002Z,18.05
2017-04-22T09:21:14.046Z,18.13
2017-04-22T09:22:25.088Z,18.35
2017-04-22T09:23:36.334Z,18.29
2017-04-22T09:24:47.590Z,18.44
2017-04-22T09:25:58.640Z,18.45
2017-04-22T09:27:09.691Z,18.29
2017-04-22T09:28:20.734Z,18.23
2017-04-22T09:29:31.983Z,17.94
2017-04-22T09:30:43.023Z,17.42
2017-04-22T09:31:54.267Z,16.81
2017-04-22T09:33:05.523Z,16.34
2017-04-22T09:34:16.608Z,15.77
2017-04-22T09:35:27.646Z,15.35
2017-04-22T09:36:38.897Z,14.85
2017-04-22T09:37:49.934Z,14.52
2017-04-22T09:39:01.169Z,14.41
2017-04-22T09:40:12.215Z,14.49
2017-04-22T09:41:23.254Z,14.67
2017-04-22T09:42:34.291Z,14.71
2017-04-22T09:43:45.750Z,14.66
2017-04-22T09:44:56.803Z,14.46
2017-04-22T09:46:07.831Z,14.42
2017-04-22T09:47:18.871Z,14.56
2017-04-22T09:48:30.110Z,14.9
2017-04-22T09:49:41.143Z,15.16
2017-04-22T09:50:52.194Z,15.47
2017-04-22T09:52:03.229Z,15.84
2017-04-22T09:53:14.484Z,16.16
2017-04-22T09:54:25.530Z,16.66
2017-04-22T09:55:36.570Z,16.72
2017-04-22T09:56:47.633Z,16.65
2017-04-22T09:57:58.679Z,16.47
2017-04-22T09:59:09.728Z,15.96
2017-04-22T10:00:21.183Z,15.45
2017-04-22T10:01:32.217Z,15.19
2017-04-22T10:02:43.243Z,14.93
2017-04-22T10:03:54.443Z,14.75
2017-04-22T10:05:05.677Z,14.82
2017-04-22T10:06:16.712Z,14.51
2017-04-22T10:07:28.024Z,14.31
2017-04-22T10:08:39.056Z,13.97
2017-04-22T10:09:50.092Z,13.7
2017-04-22T10:11:01.123Z,13.54
2017-04-22T10:12:12.162Z,13.4
2017-04-22T10:13:23.393Z,13.36
2017-04-22T10:14:34.420Z,13.24
2017-04-22T10:15:45.459Z,13.29
2017-04-22T10:16:56.474Z,13.35
2017-04-22T10:18:07.525Z,13.28
2017-04-22T10:19:18.575Z,13.35
2017-04-22T10:20:29.664Z,13.32
2017-04-22T10:21:40.923Z,13.37
2017-04-22T10:22:51.945Z,13.44
2017-04-22T10:24:02.986Z,13.45
2017-04-22T10:25:14.037Z,13.37
2017-04-22T10:26:25.066Z,13.27
2017-04-22T10:27:36.106Z,13.2
2017-04-22T10:28:47.195Z,13.21
2017-04-22T10:29:58.238Z,13.44
2017-04-22T10:31:09.328Z,13.84
2017-04-22T10:32:20.407Z,14.02
2017-04-22T10:33:31.446Z,14.59
2017-04-22T10:34:42.516Z,14.94
2017-04-22T10:35:53.786Z,15.27
2017-04-22T10:37:05.009Z,15.43
2017-04-22T10:38:16.456Z,15.45
2017-04-22T10:39:27.900Z,15.43
2017-04-22T10:40:39.143Z,15.16
2017-04-22T10:41:50.170Z,15.08
2017-04-22T10:43:01.236Z,15.05
2017-04-22T10:44:12.276Z,14.97
2017-04-22T10:45:23.319Z,14.77
2017-04-22T10:46:34.353Z,14.67
2017-04-22T10:47:45.384Z,14.59
2017-04-22T10:48:56.422Z,14.67
2017-04-22T10:50:07.460Z,14.59
2017-04-22T10:51:18.886Z,14.67
2017-04-22T10:52:29.917Z,14.71
2017-04-22T10:53:40.962Z,14.82
2017-04-22T10:54:52.189Z,15.1
2017-04-22T10:56:03.243Z,15.18
2017-04-22T10:57:14.469Z,14.98
2017-04-22T10:58:25.530Z,14.74
2017-04-22T10:59:36.776Z,14.63
2017-04-22T11:00:47.804Z,14.64
2017-04-22T11:01:58.893Z,14.46
2017-04-22T11:03:10.063Z,14.63
2017-04-22T11:04:21.304Z,14.53
2017-04-22T11:05:32.452Z,14.31
2017-04-22T11:06:43.840Z,14.42
2017-04-22T11:07:54.876Z,14.53
2017-04-22T11:09:05.907Z,14.6
2017-04-22T11:10:16.943Z,14.6
2017-04-22T11:11:27.974Z,14.63
2017-04-22T11:12:39.428Z,14.59
2017-04-22T11:13:50.466Z,14.71
2017-04-22T11:15:01.697Z,14.74
2017-04-22T11:16:12.741Z,14.71
2017-04-22T11:17:23.983Z,14.67
2017-04-22T11:18:35.018Z,14.46
2017-04-22T11:19:46.046Z,14.26
2017-04-22T11:20:57.084Z,13.97
2017-04-22T11:22:08.325Z,13.86
2017-04-22T11:23:19.360Z,13.83
2017-04-22T11:24:30.409Z,13.54
2017-04-22T11:25:41.440Z,13.25
2017-04-22T11:26:52.479Z,13.44
2017-04-22T11:28:03.748Z,13.17
2017-04-22T11:29:14.978Z,13.07
2017-04-22T11:30:26.219Z,13.02
2017-04-22T11:31:37.246Z,12.89
2017-04-22T11:32:48.469Z,12.88
2017-04-22T11:33:59.559Z,12.86
2017-04-22T11:35:10.628Z,12.81
2017-04-22T11:36:22.002Z,12.77
2017-04-22T11:37:33.034Z,13.02
2017-04-22T11:38:44.068Z,13.45
2017-04-22T11:39:55.292Z,13.88
2017-04-22T11:41:06.735Z,14.39
2017-04-22T11:42:17.772Z,14.59
2017-04-22T11:43:28.815Z,14.85
2017-04-22T11:44:39.861Z,15.13
2017-04-22T11:45:50.903Z,15.37
2017-04-22T11:47:02.127Z,15.6
2017-04-22T11:48:13.224Z,15.89
2017-04-22T11:49:24.261Z,15.99
2017-04-22T11:50:35.299Z,15.91
2017-04-22T11:51:46.341Z,15.73
2017-04-22T11:52:57.368Z,15.47
2017-04-22T11:54:08.416Z,15.35
2017-04-22T11:55:19.448Z,15.16
2017-04-22T11:56:30.477Z,14.85
2017-04-22T11:57:41.519Z,14.56
2017-04-22T11:58:52.552Z,14.39
2017-04-22T12:00:03.589Z,14.28
2017-04-22T12:01:14.623Z,14.3
2017-04-22T12:02:25.666Z,14.63
2017-04-22T12:03:36.720Z,14.97
2017-04-22T12:04:47.752Z,15.34
2017-04-22T12:05:58.831Z,15.52
2017-04-22T12:07:09.866Z,15.88
2017-04-22T12:08:20.905Z,15.89
2017-04-22T12:09:32.134Z,16.13
2017-04-22T12:10:43.651Z,16.07
2017-04-22T12:11:54.894Z,15.99
2017-04-22T12:13:06.179Z,16.07
2017-04-22T12:14:17.404Z,16.02
2017-04-22T12:15:28.640Z,15.92
2017-04-22T12:16:39.796Z,15.86
2017-04-22T12:17:51.021Z,15.3
2017-04-22T12:19:02.115Z,15.15
2017-04-22T12:20:13.156Z,14.98
2017-04-22T12:21:24.194Z,14.66
2017-04-22T12:22:35.239Z,14.46
2017-04-22T12:23:46.489Z,14.39
2017-04-22T12:24:57.555Z,14.12
2017-04-22T12:26:08.592Z,14.19
2017-04-22T12:27:19.630Z,14.11
2017-04-22T12:28:30.706Z,14.03
2017-04-22T12:29:41.789Z,14.06
2017-04-22T12:30:52.823Z,13.99
2017-04-22T12:32:03.854Z,14.21
2017-04-22T12:33:14.887Z,14.19
2017-04-22T12:34:25.918Z,14.19
2017-04-22T12:35:36.949Z,14.28
2017-04-22T12:36:48.182Z,14.49
2017-04-22T12:37:59.220Z,14.95
2017-04-22T12:39:10.255Z,15.16
2017-04-22T12:40:21.506Z,15.2
2017-04-22T12:41:32.550Z,15.22
2017-04-22T12:42:43.577Z,15.15
2017-04-22T12:43:54.612Z,15.16
2017-04-22T12:45:05.646Z,15.19
2017-04-22T12:46:16.685Z,15.2
2017-04-22T12:47:27.707Z,14.95
2017-04-22T12:48:38.761Z,14.95
2017-04-22T12:49:50.240Z,14.82
2017-04-22T12:51:01.347Z,14.56
2017-04-22T12:52:12.376Z,14.49
2017-04-22T12:53:23.532Z,14.36
2017-04-22T12:54:34.566Z,14.41
2017-04-22T12:55:45.600Z,14.05
2017-04-22T12:56:56.637Z,14.08
2017-04-22T12:58:07.679Z,14.05
2017-04-22T12:59:18.917Z,13.83
2017-04-22T13:00:30.186Z,13.76
2017-04-22T13:01:41.206Z,13.75
2017-04-22T13:02:52.241Z,13.72
2017-04-22T13:04:03.263Z,13.87
2017-04-22T13:05:14.503Z,13.86
2017-04-22T13:06:25.541Z,13.83
2017-04-22T13:07:36.578Z,13.95
2017-04-22T13:08:47.826Z,14.15
2017-04-22T13:09:58.881Z,14.2
2017-04-22T13:11:09.956Z,14.57
2017-04-22T13:12:21.003Z,14.52
2017-04-22T13:13:32.050Z,14.45
2017-04-22T13:14:43.091Z,14.34
2017-04-22T13:15:54.124Z,14.42
2017-04-22T13:17:05.156Z,14.33
2017-04-22T13:18:16.191Z,14.02
2017-04-22T13:19:27.233Z,13.97
2017-04-22T13:20:38.277Z,13.87
2017-04-22T13:21:49.317Z,13.81
2017-04-22T13:23:00.354Z,13.76
2017-04-22T13:24:11.594Z,13.55
2017-04-22T13:25:22.632Z,13.51
2017-04-22T13:26:33.664Z,13.37
2017-04-22T13:27:44.696Z,13.36
2017-04-22T13:28:55.808Z,13.27
2017-04-22T13:30:06.836Z,13.29
2017-04-22T13:31:17.909Z,13.2
2017-04-22T13:32:29.141Z,13.03
2017-04-22T13:33:40.395Z,13.06
2017-04-22T13:34:51.434Z,12.92
2017-04-22T13:36:02.463Z,12.92
2017-04-22T13:37:13.492Z,13.13
2017-04-22T13:38:24.528Z,13.32
2017-04-22T13:39:35.776Z,13.39
2017-04-22T13:40:46.806Z,13.48
2017-04-22T13:41:57.872Z,13.6
2017-04-22T13:43:09.106Z,13.72
2017-04-22T13:44:20.141Z,13.69
2017-04-22T13:45:31.177Z,13.58
2017-04-22T13:46:42.238Z,13.62
2017-04-22T13:47:53.274Z,13.6
2017-04-22T13:49:04.517Z,13.66
2017-04-22T13:50:15.752Z,13.45
2017-04-22T13:51:26.786Z,13.44
2017-04-22T13:52:37.862Z,13.39
2017-04-22T13:53:49.114Z,13.28
2017-04-22T13:55:00.143Z,13.35
2017-04-22T13:56:11.173Z,13.31
2017-04-22T13:57:22.188Z,13.27
2017-04-22T13:58:33.221Z,13.11
2017-04-22T13:59:44.260Z,13.24
2017-04-22T14:00:55.490Z,13.35
2017-04-22T14:02:06.533Z,13.27
2017-04-22T14:03:17.602Z,13.39
2017-04-22T14:04:28.626Z,13.54
2017-04-22T14:05:39.857Z,13.51
2017-04-22T14:06:50.931Z,13.54
2017-04-22T14:08:01.969Z,13.5
2017-04-22T14:09:13.198Z,13.42
2017-04-22T14:10:24.237Z,13.6
2017-04-22T14:11:35.263Z,13.58
2017-04-22T14:12:46.498Z,13.53
2017-04-22T14:13:57.529Z,13.54
2017-04-22T14:15:08.560Z,13.58
2017-04-22T14:16:19.641Z,13.69
2017-04-22T14:17:30.685Z,13.73
2017-04-22T14:18:41.713Z,13.68
2017-04-22T14:19:52.754Z,13.65
2017-04-22T14:21:03.963Z,13.73
2017-04-22T14:22:15.064Z,13.66
2017-04-22T14:23:26.512Z,13.63
2017-04-22T14:24:37.547Z,13.72
2017-04-22T14:25:48.571Z,13.66
2017-04-22T14:26:59.604Z,13.7
2017-04-22T14:28:10.636Z,13.73
2017-04-22T14:29:21.933Z,13.57
2017-04-22T14:30:32.978Z,13.63
2017-04-22T14:31:44.081Z,13.44
2017-04-22T14:32:55.112Z,13.32
2017-04-22T14:34:06.194Z,13.29
2017-04-22T14:35:17.237Z,13.32
2017-04-22T14:36:28.477Z,13.47
2017-04-22T14:37:39.516Z,13.44
2017-04-22T14:38:50.589Z,13.39
2017-04-22T14:40:01.820Z,13.4
2017-04-22T14:41:12.851Z,13.45
2017-04-22T14:42:24.088Z,13.55
2017-04-22T14:43:35.123Z,13.58
2017-04-22T14:44:46.156Z,13.54
2017-04-22T14:45:57.182Z,13.57
2017-04-22T14:47:08.215Z,13.58
2017-04-22T14:48:19.263Z,13.58
2017-04-22T14:49:30.295Z,13.47
2017-04-22T14:50:41.321Z,13.45
2017-04-22T14:51:52.354Z,13.42
2017-04-22T14:53:03.383Z,13.35
2017-04-22T14:54:14.621Z,13.31
2017-04-22T14:55:25.856Z,13.37
2017-04-22T14:56:36.903Z,13.28
2017-04-22T14:57:47.936Z,13.31
2017-04-22T14:58:59.203Z,13.27
2017-04-22T15:00:10.372Z,13.36
2017-04-22T15:01:21.802Z,13.36
2017-04-22T15:02:33.325Z,13.36
2017-04-22T15:03:45.823Z,13.27
2017-04-22T15:04:57.410Z,13.35
2017-04-22T15:06:08.711Z,13.19
2017-04-22T15:07:20.118Z,13.07
2017-04-22T15:08:32.101Z,12.94
2017-04-22T15:09:44.729Z,12.91
2017-04-22T15:10:58.241Z,12.89
2017-04-22T15:12:09.686Z,12.81
2017-04-22T15:13:21.872Z,12.74
2017-04-22T15:14:33.417Z,12.59
2017-04-22T15:15:44.986Z,12.55
2017-04-22T15:16:56.327Z,12.56
2017-04-22T15:18:07.527Z,12.55
2017-04-22T15:19:18.914Z,12.56
2017-04-22T15:20:30.252Z,12.48
2017-04-22T15:21:41.808Z,12.26
2017-04-22T15:22:53.432Z,12.36
2017-04-22T15:24:05.097Z,12.19
2017-04-22T15:25:16.371Z,12.1
2017-04-22T15:26:27.881Z,12.01
2017-04-22T15:27:39.931Z,12.05
2017-04-22T15:28:52.639Z,12.08
2017-04-22T15:30:03.983Z,12.08